Berga II — 7TQI — position and weather

sailwx.info

Track history (hours):
 
Tides and Currents Weather Stations Pressure Air Temp Water Temp Dewpoint Dewpoint Depression Visibility Wind Speed Wind Dir Waves Ship Positions

Berga II

Last reported at 2018-Oct-13 08:18 UTC. Time now 2018-Oct-17 20:46 UTC.
Position N 36°28' E 000°39'.

Length 174 m; draft 6.5 m.

Type: Ship (hazmat cat B). MMSI: 605076051.

Date/timePositionNaut miles runAvg speedWind from/ knotsBaromVisibWave heightAir tempDewpointWater temp
2018-Oct-13 08:18N 36°28' E 000°39'10513.8
2018-Oct-13 00:42N 37°03' E 002°43'48310.3
2018-Oct-11 02:00N 43°06' E 009°38'713.7
2018-Oct-11 01:30N 43°12' E 009°42'613.4
2018-Oct-11 01:03N 43°18' E 009°42'113.9
2018-Oct-11 01:00N 43°19' E 009°42'714.1
2018-Oct-11 00:30N 43°24' E 009°35'614.1
2018-Oct-11 00:03N 43°29' E 009°30'113.9
2018-Oct-11 00:00N 43°30' E 009°29'713.4
2018-Oct-10 23:30N 43°36' E 009°25'613.4
2018-Oct-10 23:03N 43°41' E 009°21'113.5
2018-Oct-10 23:00N 43°42' E 009°21'713.7
2018-Oct-10 22:30N 43°48' E 009°16'613.7
2018-Oct-10 22:03N 43°53' E 009°11'113.5
2018-Oct-10 22:00N 43°54' E 009°11'612.9
2018-Oct-10 21:30N 43°60' E 009°08'511.4
2018-Oct-10 21:03N 44°04' E 009°05'111.3
2018-Oct-10 21:00N 44°05' E 009°05'611.1
2018-Oct-10 20:30N 44°10' E 009°02'4 9.8
2018-Oct-10 20:03N 44°14' E 009°01'0 8.3
2018-Oct-10 20:00N 44°15' E 009°00'4 8.3
2018-Oct-10 19:30N 44°19' E 008°60'1 2.8
2018-Oct-10 19:03N 44°20' E 009°00'0 1.9
2018-Oct-10 19:00N 44°20' E 009°00'2 3.8
2018-Oct-10 18:30N 44°18' E 009°00'2 3.7
2018-Oct-10 18:03N 44°18' E 008°58'0 3.5
2018-Oct-10 18:00N 44°18' E 008°58'2 3.6
2018-Oct-10 17:30N 44°16' E 008°56'1 1.3
2018-Oct-10 17:03N 44°16' E 008°57'0 1.7
2018-Oct-10 17:00N 44°16' E 008°57'1 2.8
2018-Oct-10 16:31N 44°15' E 008°59'1 1.2
2018-Oct-10 16:03N 44°16' E 008°59'0 0.5
2018-Oct-10 16:00N 44°16' E 008°59'1 2.1
2018-Oct-10 15:30N 44°15' E 008°58'1 2.2
2018-Oct-10 15:04N 44°16' E 008°58'0 1.9
2018-Oct-10 15:00N 44°16' E 008°58'4 4.5
2018-Oct-10 14:03N 44°12' E 008°59'0 3.2
2018-Oct-10 14:00N 44°11' E 008°59'2 3.4
2018-Oct-10 13:30N 44°10' E 008°59'0 0.4
2018-Oct-10 13:03N 44°10' E 008°59'0 2.6
2018-Oct-10 13:00N 44°10' E 008°59'1 1.7
2018-Oct-10 12:30N 44°10' E 008°58'0 0.5
2018-Oct-10 12:03N 44°10' E 008°58'0 9.4
2018-Oct-10 12:00N 44°10' E 008°58'4 8.1
2018-Oct-10 11:30N 44°07' E 009°02'511.0
2018-Oct-10 11:03N 44°11' E 008°59'112.0
2018-Oct-10 11:00N 44°12' E 008°59'2 3.0
2018-Oct-10 10:30N 44°13' E 008°58'3 6.4
2018-Oct-10 10:03N 44°16' E 008°58'0 8.5
2018-Oct-10 10:00N 44°16' E 008°58'4 8.6
2018-Oct-10 09:30N 44°21' E 008°57'3 7.3
2018-Oct-10 09:02N 44°24' E 008°56'0 0.6
2018-Oct-10 08:59N 44°24' E 008°56'0 0.0
2018-Oct-10 08:29N 44°24' E 008°56'0 0.0
2018-Oct-10 08:03N 44°24' E 008°56'0 0.0
2018-Oct-10 07:59N 44°24' E 008°56'0 0.0
2018-Oct-10 07:29N 44°24' E 008°56'0 0.0
2018-Oct-10 07:02N 44°24' E 008°56'0 0.0
2018-Oct-10 06:59N 44°24' E 008°56'0 0.0
2018-Oct-10 06:29N 44°24' E 008°56'0 0.0
2018-Oct-10 06:02N 44°24' E 008°56'0 0.0
2018-Oct-10 05:59N 44°24' E 008°56'0 0.0
2018-Oct-10 05:29N 44°24' E 008°56'0 0.0
2018-Oct-10 05:02N 44°24' E 008°56'0 0.0
2018-Oct-10 04:59N 44°24' E 008°56'0 0.0
2018-Oct-10 04:29N 44°24' E 008°56'0 0.0
2018-Oct-10 04:02N 44°24' E 008°56'0 0.1
2018-Oct-10 03:59N 44°24' E 008°56'0 0.0
2018-Oct-10 03:29N 44°24' E 008°56'0 0.0
2018-Oct-10 03:02N 44°24' E 008°56'0 0.0
2018-Oct-10 02:59N 44°24' E 008°56'0 0.0
2018-Oct-10 02:29N 44°24' E 008°56'0 0.0
2018-Oct-10 02:02N 44°24' E 008°56'0 0.0
2018-Oct-10 01:59N 44°24' E 008°56'0 0.0
2018-Oct-10 01:29N 44°24' E 008°56'0 0.0
2018-Oct-10 01:02N 44°24' E 008°56'0 0.0
2018-Oct-10 00:59N 44°24' E 008°56'0 0.0
2018-Oct-10 00:29N 44°24' E 008°56'0 0.0
2018-Oct-10 00:02N 44°24' E 008°56'0 0.0
2018-Oct-09 23:59N 44°24' E 008°56'0 0.0
2018-Oct-09 23:29N 44°24' E 008°56'0 0.0
2018-Oct-09 23:02N 44°24' E 008°56'0 0.1
2018-Oct-09 22:59N 44°24' E 008°56'0 0.0
2018-Oct-09 22:29N 44°24' E 008°56'0 0.0
2018-Oct-09 22:02N 44°24' E 008°56'0 0.0
2018-Oct-09 21:59N 44°24' E 008°56'0 0.0
2018-Oct-09 21:29N 44°24' E 008°56'0 0.0
2018-Oct-09 21:02N 44°24' E 008°56'0 0.0
2018-Oct-09 20:59N 44°24' E 008°56'0 0.0
2018-Oct-09 20:29N 44°24' E 008°56'0 0.0
2018-Oct-09 20:02N 44°24' E 008°56'0 0.1
2018-Oct-09 19:59N 44°24' E 008°56'0 0.0
2018-Oct-09 19:29N 44°24' E 008°56'0 0.0
2018-Oct-09 19:02N 44°24' E 008°56'0 0.0
2018-Oct-09 18:59N 44°24' E 008°56'0 0.0
2018-Oct-09 18:29N 44°24' E 008°56'0 0.0
2018-Oct-09 18:02N 44°24' E 008°56'0 0.0
2018-Oct-09 17:59N 44°24' E 008°56'0 0.0
2018-Oct-09 17:29N 44°24' E 008°56'0 0.0
2018-Oct-09 17:02N 44°24' E 008°56'0 0.1
2018-Oct-09 16:56N 44°24' E 008°56'0 0.0
2018-Oct-09 16:29N 44°24' E 008°56'0 0.0
2018-Oct-09 16:02N 44°24' E 008°56'0 0.1
2018-Oct-09 15:59N 44°24' E 008°56'0 0.0
2018-Oct-09 15:29N 44°24' E 008°56'0 0.0
2018-Oct-09 15:02N 44°24' E 008°56'0 0.1
2018-Oct-09 14:59N 44°24' E 008°56'0 0.0
2018-Oct-09 13:59N 44°24' E 008°56'0 0.0
2018-Oct-09 13:29N 44°24' E 008°56'0 0.0
2018-Oct-09 13:02N 44°24' E 008°56'0 0.0
2018-Oct-09 12:59N 44°24' E 008°56'0 0.0
2018-Oct-09 12:29N 44°24' E 008°56'0 0.0
2018-Oct-09 12:02N 44°24' E 008°56'0 0.1
2018-Oct-09 11:59N 44°24' E 008°56'0 0.0
2018-Oct-09 11:29N 44°24' E 008°56'0 0.0
2018-Oct-09 11:02N 44°24' E 008°56'0 0.1
2018-Oct-09 10:59N 44°24' E 008°56'0 0.0
2018-Oct-09 10:29N 44°24' E 008°56'0 0.0
2018-Oct-09 10:02N 44°24' E 008°56'0 0.0
2018-Oct-09 09:59N 44°24' E 008°56'0 0.0
2018-Oct-09 09:29N 44°24' E 008°56'0 0.0
2018-Oct-09 09:02N 44°24' E 008°56'0 0.0
2018-Oct-09 08:59N 44°24' E 008°56'0 0.0
2018-Oct-09 08:29N 44°24' E 008°56'0 0.0
2018-Oct-09 08:02N 44°24' E 008°56'0 0.0
2018-Oct-09 07:59N 44°24' E 008°56'0 0.0
2018-Oct-09 07:29N 44°24' E 008°56'0 0.0
2018-Oct-09 07:02N 44°24' E 008°56'0 0.1
2018-Oct-09 06:59N 44°24' E 008°56'0 0.0
2018-Oct-09 06:29N 44°24' E 008°56'0 0.0
2018-Oct-09 06:02N 44°24' E 008°56'0 0.0
2018-Oct-09 05:59N 44°24' E 008°56'0 0.0
2018-Oct-09 05:29N 44°24' E 008°56'0 0.0
2018-Oct-09 05:02N 44°24' E 008°56'0 0.1
2018-Oct-09 04:59N 44°24' E 008°56'0 0.0
2018-Oct-09 04:29N 44°24' E 008°56'0 0.0
2018-Oct-09 03:59N 44°24' E 008°56'0 0.0
2018-Oct-09 03:29N 44°24' E 008°56'0 0.0
2018-Oct-09 03:02N 44°24' E 008°56'0 0.0
2018-Oct-09 02:59N 44°24' E 008°56'0 0.0
2018-Oct-09 02:29N 44°24' E 008°56'0 0.0
2018-Oct-09 02:02N 44°24' E 008°56'0 0.0
2018-Oct-09 01:59N 44°24' E 008°56'0 0.0
2018-Oct-09 01:29N 44°24' E 008°56'0 0.0
2018-Oct-09 01:02N 44°24' E 008°56'0 0.0
2018-Oct-09 00:59N 44°24' E 008°56'0 0.0
2018-Oct-09 00:29N 44°24' E 008°56'0 0.0
2018-Oct-09 00:02N 44°24' E 008°56'0 0.1
2018-Oct-08 23:59N 44°24' E 008°56'0 0.0
2018-Oct-08 23:29N 44°24' E 008°56'0 0.0
2018-Oct-08 23:02N 44°24' E 008°56'0 0.0
2018-Oct-08 22:59N 44°24' E 008°56'0 0.0
2018-Oct-08 22:29N 44°24' E 008°56'0 0.0
2018-Oct-08 22:02N 44°24' E 008°56'0 0.1
2018-Oct-08 21:59N 44°24' E 008°56'0 0.0
2018-Oct-08 21:29N 44°24' E 008°56'0 0.0
2018-Oct-08 21:02N 44°24' E 008°56'0 0.1
2018-Oct-08 20:59N 44°24' E 008°56'0 0.0
2018-Oct-08 20:29N 44°24' E 008°56'0 0.0
2018-Oct-08 20:02N 44°24' E 008°56'0 0.1
2018-Oct-08 19:59N 44°24' E 008°56'0 0.0
2018-Oct-08 19:29N 44°24' E 008°56'0 0.0
2018-Oct-08 19:02N 44°24' E 008°56'0 0.1
2018-Oct-08 18:59N 44°24' E 008°56'0 0.0
2018-Oct-08 18:29N 44°24' E 008°56'0 0.0
2018-Oct-08 18:02N 44°24' E 008°56'0 0.0
2018-Oct-08 17:59N 44°24' E 008°56'0 0.0
2018-Oct-08 17:29N 44°24' E 008°56'0 0.0
2018-Oct-08 17:02N 44°24' E 008°56'0 0.0
2018-Oct-08 16:59N 44°24' E 008°56'0 0.0
2018-Oct-08 16:29N 44°24' E 008°56'0 0.0
2018-Oct-08 16:02N 44°24' E 008°56'0 0.0
2018-Oct-08 15:59N 44°24' E 008°56'0 0.0
2018-Oct-08 15:29N 44°24' E 008°56'0 0.0
2018-Oct-08 15:02N 44°24' E 008°56'0 0.0
2018-Oct-08 14:59N 44°24' E 008°56'0 0.0
2018-Oct-08 14:02N 44°24' E 008°56'0 0.1
2018-Oct-08 13:59N 44°24' E 008°56'0 0.0
2018-Oct-08 13:29N 44°24' E 008°56'0 0.0
2018-Oct-08 13:02N 44°24' E 008°56'0 0.0
2018-Oct-08 12:59N 44°24' E 008°56'0 0.0
2018-Oct-08 12:29N 44°24' E 008°56'0 0.0
2018-Oct-08 12:02N 44°24' E 008°56'0 0.0
2018-Oct-08 11:59N 44°24' E 008°56'0 0.0
2018-Oct-08 11:29N 44°24' E 008°56'0 0.0
2018-Oct-08 11:02N 44°24' E 008°56'0 0.0
2018-Oct-08 10:59N 44°24' E 008°56'0 0.0
2018-Oct-08 10:29N 44°24' E 008°56'0 0.0
2018-Oct-08 10:02N 44°24' E 008°56'0 0.0
2018-Oct-08 09:59N 44°24' E 008°56'0 0.0
2018-Oct-08 09:29N 44°24' E 008°56'0 0.0
2018-Oct-08 09:02N 44°24' E 008°56'0 0.0
2018-Oct-08 08:59N 44°24' E 008°56'0 0.0
2018-Oct-08 08:29N 44°24' E 008°56'0 0.0
2018-Oct-08 08:02N 44°24' E 008°56'0 0.0
2018-Oct-08 07:59N 44°24' E 008°56'0 0.0
2018-Oct-08 07:29N 44°24' E 008°56'0 0.0
2018-Oct-08 07:02N 44°24' E 008°56'0 0.1
2018-Oct-08 06:59N 44°24' E 008°56'0 0.0
2018-Oct-08 06:29N 44°24' E 008°56'0 0.0
2018-Oct-08 06:02N 44°24' E 008°56'0 0.0
2018-Oct-08 05:56N 44°24' E 008°56'0 0.0
2018-Oct-08 05:29N 44°24' E 008°56'0 0.0
2018-Oct-08 05:02N 44°24' E 008°56'0 0.1
2018-Oct-08 04:59N 44°24' E 008°56'0 0.0
2018-Oct-08 04:29N 44°24' E 008°56'0 0.0
2018-Oct-08 04:02N 44°24' E 008°56'0 0.0
2018-Oct-08 03:59N 44°24' E 008°56'0 0.0
2018-Oct-08 03:30N 44°24' E 008°56'0 0.0
2018-Oct-08 03:02N 44°24' E 008°56'0 0.0
2018-Oct-08 02:59N 44°24' E 008°56'0 0.0
2018-Oct-08 02:29N 44°24' E 008°56'0 0.0
2018-Oct-08 02:02N 44°24' E 008°56'0 0.1
2018-Oct-08 01:59N 44°24' E 008°56'0 0.0
2018-Oct-08 01:29N 44°24' E 008°56'0 0.0
2018-Oct-08 01:02N 44°24' E 008°56'0 0.0
2018-Oct-08 00:59N 44°24' E 008°56'0 0.0
2018-Oct-08 00:29N 44°24' E 008°56'0 0.0
2018-Oct-08 00:02N 44°24' E 008°56'0 0.1
2018-Oct-07 23:59N 44°24' E 008°56'0 0.0
2018-Oct-07 23:29N 44°24' E 008°56'0 0.0
2018-Oct-07 23:02N 44°24' E 008°56'0 0.0
2018-Oct-07 22:59N 44°24' E 008°56'0 0.0
2018-Oct-07 22:29N 44°24' E 008°56'0 0.0
2018-Oct-07 22:02N 44°24' E 008°56'0 0.0
2018-Oct-07 21:59N 44°24' E 008°56'0 0.0
2018-Oct-07 21:29N 44°24' E 008°56'0 0.0
2018-Oct-07 21:02N 44°24' E 008°56'0 0.0
2018-Oct-07 20:59N 44°24' E 008°56'0 0.0
2018-Oct-07 20:29N 44°24' E 008°56'0 0.0
2018-Oct-07 20:02N 44°24' E 008°56'0 0.0
2018-Oct-07 19:59N 44°24' E 008°56'0 0.0
2018-Oct-07 19:29N 44°24' E 008°56'0 0.0
2018-Oct-07 19:02N 44°24' E 008°56'0 0.0
2018-Oct-07 18:59N 44°24' E 008°56'0 0.0
2018-Oct-07 18:29N 44°24' E 008°56'0 0.0
2018-Oct-07 18:02N 44°24' E 008°56'0 0.1
2018-Oct-07 17:59N 44°24' E 008°56'0 0.0
2018-Oct-07 17:29N 44°24' E 008°56'0 0.0
2018-Oct-07 17:02N 44°24' E 008°56'0 0.0
2018-Oct-07 16:59N 44°24' E 008°56'0 0.0
2018-Oct-07 16:29N 44°24' E 008°56'0 0.0
2018-Oct-07 16:02N 44°24' E 008°56'0 0.1
2018-Oct-07 15:59N 44°24' E 008°56'0 0.0
2018-Oct-07 15:29N 44°24' E 008°56'0 0.0
2018-Oct-07 15:02N 44°24' E 008°56'0 0.0
2018-Oct-07 14:59N 44°24' E 008°56'0 0.0
2018-Oct-07 14:02N 44°24' E 008°56'0 0.1
2018-Oct-07 13:59N 44°24' E 008°56'0 0.0
2018-Oct-07 13:26N 44°24' E 008°56'0 0.0
2018-Oct-07 13:02N 44°24' E 008°56'0 0.0
2018-Oct-07 12:59N 44°24' E 008°56'0 0.0
2018-Oct-07 12:28N 44°24' E 008°56'0 0.0
2018-Oct-07 12:01N 44°24' E 008°56'0 0.0
2018-Oct-07 11:58N 44°24' E 008°56'0 0.0
2018-Oct-07 11:28N 44°24' E 008°56'0 0.0
2018-Oct-07 11:01N 44°24' E 008°56'0 0.1
2018-Oct-07 10:58N 44°24' E 008°56'0 0.0
2018-Oct-07 10:28N 44°24' E 008°56'0 0.0
2018-Oct-07 10:01N 44°24' E 008°56'0 0.0
2018-Oct-07 09:58N 44°24' E 008°56'0 0.3
2018-Oct-07 09:31N 44°24' E 008°55'0 0.6
2018-Oct-07 09:02N 44°24' E 008°55'0 0.0
2018-Oct-07 08:59N 44°24' E 008°55'0 0.0
2018-Oct-07 08:29N 44°24' E 008°55'0 0.0
2018-Oct-07 08:02N 44°24' E 008°55'0 0.0
2018-Oct-07 07:59N 44°24' E 008°55'0 0.0
2018-Oct-07 07:29N 44°24' E 008°55'0 0.0
2018-Oct-07 07:02N 44°24' E 008°55'0 0.0
2018-Oct-07 06:59N 44°24' E 008°55'0 0.0
2018-Oct-07 06:29N 44°24' E 008°55'0 0.0
2018-Oct-07 06:02N 44°24' E 008°55'0 0.0
2018-Oct-07 05:59N 44°24' E 008°55'0 0.0
2018-Oct-07 05:29N 44°24' E 008°55'0 0.0
2018-Oct-07 05:02N 44°24' E 008°55'0 0.0
2018-Oct-07 04:59N 44°24' E 008°55'0 0.0
2018-Oct-07 04:29N 44°24' E 008°55'0 0.0
2018-Oct-07 04:02N 44°24' E 008°55'0 0.0
2018-Oct-07 03:59N 44°24' E 008°55'0 0.0
2018-Oct-07 03:29N 44°24' E 008°55'0 0.0
2018-Oct-07 03:02N 44°24' E 008°55'0 0.0
2018-Oct-07 02:59N 44°24' E 008°55'0 0.0
2018-Oct-07 02:29N 44°24' E 008°55'0 0.0
2018-Oct-07 02:02N 44°24' E 008°55'0 0.0
2018-Oct-07 01:59N 44°24' E 008°55'0 0.0
2018-Oct-07 01:29N 44°24' E 008°55'0 0.0
2018-Oct-07 01:02N 44°24' E 008°55'0 0.0
2018-Oct-07 00:59N 44°24' E 008°55'0 0.0
2018-Oct-07 00:29N 44°24' E 008°55'0 0.0
2018-Oct-07 00:02N 44°24' E 008°55'0 0.0
2018-Oct-06 23:59N 44°24' E 008°55'0 0.0
2018-Oct-06 23:29N 44°24' E 008°55'0 0.0
2018-Oct-06 23:02N 44°24' E 008°55'0 0.0
2018-Oct-06 22:59N 44°24' E 008°55'0 0.0
2018-Oct-06 22:29N 44°24' E 008°55'0 0.0
2018-Oct-06 22:02N 44°24' E 008°55'0 0.0
2018-Oct-06 21:59N 44°24' E 008°55'0 0.0
2018-Oct-06 21:29N 44°24' E 008°55'0 0.0
2018-Oct-06 21:02N 44°24' E 008°55'0 0.0
2018-Oct-06 20:59N 44°24' E 008°55'0 0.0
2018-Oct-06 20:29N 44°24' E 008°55'0 0.0
2018-Oct-06 20:02N 44°24' E 008°55'0 0.0
2018-Oct-06 19:59N 44°24' E 008°55'0 0.0
2018-Oct-06 19:29N 44°24' E 008°55'0 0.0
2018-Oct-06 19:02N 44°24' E 008°55'0 0.0
2018-Oct-06 18:59N 44°24' E 008°55'0 0.0
2018-Oct-06 18:29N 44°24' E 008°55'0 0.0
2018-Oct-06 18:02N 44°24' E 008°55'0 0.0
2018-Oct-06 17:59N 44°24' E 008°55'0 0.0
2018-Oct-06 17:29N 44°24' E 008°55'0 0.0
2018-Oct-06 17:02N 44°24' E 008°55'0 0.0
2018-Oct-06 16:59N 44°24' E 008°55'0 0.0
2018-Oct-06 16:29N 44°24' E 008°55'0 0.0
2018-Oct-06 15:59N 44°24' E 008°55'0 0.0
2018-Oct-06 15:29N 44°24' E 008°55'0 0.0
2018-Oct-06 15:02N 44°24' E 008°55'0 0.0
2018-Oct-06 14:59N 44°24' E 008°55'0 0.0
2018-Oct-06 14:29N 44°24' E 008°55'0 0.0
2018-Oct-06 13:59N 44°24' E 008°55'0 0.0
2018-Oct-06 13:29N 44°24' E 008°55'0 0.0
2018-Oct-06 13:02N 44°24' E 008°55'0 0.0
2018-Oct-06 12:59N 44°24' E 008°55'0 0.0
2018-Oct-06 12:29N 44°24' E 008°55'0 0.0
2018-Oct-06 12:02N 44°24' E 008°55'0 0.0
2018-Oct-06 11:59N 44°24' E 008°55'0 0.0
2018-Oct-06 11:29N 44°24' E 008°55'0 0.0
2018-Oct-06 11:02N 44°24' E 008°55'0 0.0
2018-Oct-06 10:59N 44°24' E 008°55'0 0.0
2018-Oct-06 10:29N 44°24' E 008°55'0 0.0
2018-Oct-06 09:59N 44°24' E 008°55'0 0.0
2018-Oct-06 09:29N 44°24' E 008°55'0 0.0
2018-Oct-06 09:02N 44°24' E 008°55'0 0.0
2018-Oct-06 08:56N 44°24' E 008°55'0 0.0
2018-Oct-06 08:26N 44°24' E 008°55'0 0.0
2018-Oct-06 08:02N 44°24' E 008°55'0 0.0
2018-Oct-06 07:59N 44°24' E 008°55'0 0.0
2018-Oct-06 07:29N 44°24' E 008°55'0 0.0
2018-Oct-06 07:02N 44°24' E 008°55'0 0.0
2018-Oct-06 06:59N 44°24' E 008°55'0 0.0
2018-Oct-06 06:29N 44°24' E 008°55'0 0.0
2018-Oct-06 06:02N 44°24' E 008°55'0 0.1
2018-Oct-06 05:59N 44°24' E 008°55'0 0.0
2018-Oct-06 05:29N 44°24' E 008°55'0 0.0
2018-Oct-06 05:02N 44°24' E 008°55'0 0.1
2018-Oct-06 04:59N 44°24' E 008°55'0 0.0
2018-Oct-06 04:29N 44°24' E 008°55'0 0.0
2018-Oct-06 04:02N 44°24' E 008°55'0 0.0
2018-Oct-06 03:59N 44°24' E 008°55'0 0.0
2018-Oct-06 03:29N 44°24' E 008°55'0 0.0
2018-Oct-06 03:02N 44°24' E 008°55'0 0.0
2018-Oct-06 02:59N 44°24' E 008°55'0 0.0
2018-Oct-06 02:29N 44°24' E 008°55'0 0.0
2018-Oct-06 02:02N 44°24' E 008°55'0 0.0
2018-Oct-06 01:59N 44°24' E 008°55'0 0.0
2018-Oct-06 01:29N 44°24' E 008°55'0 0.0
2018-Oct-06 01:02N 44°24' E 008°55'0 0.0
2018-Oct-06 00:59N 44°24' E 008°55'0 0.0
2018-Oct-06 00:29N 44°24' E 008°55'0 0.0
2018-Oct-06 00:02N 44°24' E 008°55'0 0.0
2018-Oct-05 23:59N 44°24' E 008°55'0 0.0
2018-Oct-05 23:29N 44°24' E 008°55'0 0.0
2018-Oct-05 23:02N 44°24' E 008°55'0 0.0
2018-Oct-05 22:59N 44°24' E 008°55'0 0.0
2018-Oct-05 22:29N 44°24' E 008°55'0 0.0
2018-Oct-05 22:02N 44°24' E 008°55'0 0.0
2018-Oct-05 21:59N 44°24' E 008°55'0 0.0
2018-Oct-05 21:29N 44°24' E 008°55'0 0.0
2018-Oct-05 21:02N 44°24' E 008°55'0 0.0
2018-Oct-05 20:59N 44°24' E 008°55'0 0.0
2018-Oct-05 20:29N 44°24' E 008°55'0 0.0
2018-Oct-05 20:02N 44°24' E 008°55'0 0.0
2018-Oct-05 19:59N 44°24' E 008°55'0 0.0
2018-Oct-05 19:29N 44°24' E 008°55'0 0.0
2018-Oct-05 19:02N 44°24' E 008°55'0 0.0
2018-Oct-05 18:59N 44°24' E 008°55'0 0.0
2018-Oct-05 18:26N 44°24' E 008°55'0 0.0
2018-Oct-05 18:02N 44°24' E 008°55'0 0.0
2018-Oct-05 17:59N 44°24' E 008°55'0 0.0
2018-Oct-05 17:26N 44°24' E 008°55'0 0.0
2018-Oct-05 17:02N 44°24' E 008°55'0 0.0
2018-Oct-05 16:59N 44°24' E 008°55'0 0.0
2018-Oct-05 16:29N 44°24' E 008°55'0 0.0
2018-Oct-05 16:02N 44°24' E 008°55'0 0.0
2018-Oct-05 15:59N 44°24' E 008°55'0 0.0
2018-Oct-05 15:29N 44°24' E 008°55'0 0.0
2018-Oct-05 15:02N 44°24' E 008°55'0 0.0
2018-Oct-05 14:59N 44°24' E 008°55'0 0.0
2018-Oct-05 14:29N 44°24' E 008°55'0 0.0
2018-Oct-05 13:59N 44°24' E 008°55'0 0.0
2018-Oct-05 13:29N 44°24' E 008°55'0 0.0
2018-Oct-05 13:02N 44°24' E 008°55'0 0.0
2018-Oct-05 12:59N 44°24' E 008°55'0 0.0
2018-Oct-05 12:29N 44°24' E 008°55'0 0.0
2018-Oct-05 12:02N 44°24' E 008°55'0 0.0
2018-Oct-05 11:59N 44°24' E 008°55'0 0.0
2018-Oct-05 11:29N 44°24' E 008°55'0 0.0
2018-Oct-05 11:02N 44°24' E 008°55'0 0.0
2018-Oct-05 10:59N 44°24' E 008°55'0 0.0
2018-Oct-05 10:29N 44°24' E 008°55'0 0.0
2018-Oct-05 10:02N 44°24' E 008°55'0 0.0
2018-Oct-05 09:59N 44°24' E 008°55'0 0.0
2018-Oct-05 09:29N 44°24' E 008°55'0 0.0
2018-Oct-05 09:02N 44°24' E 008°55'0 0.0
2018-Oct-05 08:59N 44°24' E 008°55'0 0.0
2018-Oct-05 08:26N 44°24' E 008°55'0 0.0
2018-Oct-05 08:02N 44°24' E 008°55'0 0.0
2018-Oct-05 07:59N 44°24' E 008°55'0 0.0
2018-Oct-05 07:29N 44°24' E 008°55'0 0.0
2018-Oct-05 07:02N 44°24' E 008°55'0 0.0
2018-Oct-05 06:59N 44°24' E 008°55'0 0.0
2018-Oct-05 06:29N 44°24' E 008°55'0 0.0
2018-Oct-05 06:02N 44°24' E 008°55'0 0.0
2018-Oct-05 05:59N 44°24' E 008°55'0 0.0
2018-Oct-05 05:29N 44°24' E 008°55'0 0.0
2018-Oct-05 05:02N 44°24' E 008°55'0 0.0
2018-Oct-05 04:59N 44°24' E 008°55'0 0.0
2018-Oct-05 04:29N 44°24' E 008°55'0 0.0
2018-Oct-05 04:02N 44°24' E 008°55'0 0.0
2018-Oct-05 03:59N 44°24' E 008°55'0 0.0
2018-Oct-05 03:29N 44°24' E 008°55'0 0.0
2018-Oct-05 03:02N 44°24' E 008°55'0 0.0
2018-Oct-05 02:59N 44°24' E 008°55'0 0.0
2018-Oct-05 02:29N 44°24' E 008°55'0 0.0
2018-Oct-05 02:02N 44°24' E 008°55'0 0.0
2018-Oct-05 01:59N 44°24' E 008°55'0 0.0
2018-Oct-05 01:29N 44°24' E 008°55'0 0.0
2018-Oct-05 01:02N 44°24' E 008°55'0 0.0
2018-Oct-05 00:59N 44°24' E 008°55'0 0.0
2018-Oct-05 00:29N 44°24' E 008°55'0 0.0
2018-Oct-05 00:02N 44°24' E 008°55'0 0.0
2018-Oct-04 23:59N 44°24' E 008°55'0 0.0
2018-Oct-04 23:29N 44°24' E 008°55'0 0.0
2018-Oct-04 23:02N 44°24' E 008°55'0 0.0
2018-Oct-04 22:59N 44°24' E 008°55'0 0.0
2018-Oct-04 22:29N 44°24' E 008°55'0 0.0
2018-Oct-04 22:02N 44°24' E 008°55'0 0.0
2018-Oct-04 21:59N 44°24' E 008°55'0 0.0
2018-Oct-04 21:28N 44°24' E 008°55'0 0.0
2018-Oct-04 21:02N 44°24' E 008°55'0 0.0
2018-Oct-04 20:59N 44°24' E 008°55'0 0.0
2018-Oct-04 20:29N 44°24' E 008°55'0 0.0
2018-Oct-04 20:02N 44°24' E 008°55'0 0.0
2018-Oct-04 19:59N 44°24' E 008°55'0 0.0
2018-Oct-04 19:29N 44°24' E 008°55'0 0.0
2018-Oct-04 19:02N 44°24' E 008°55'0 0.0
2018-Oct-04 18:59N 44°24' E 008°55'0 0.0
2018-Oct-04 18:29N 44°24' E 008°55'0 0.0
2018-Oct-04 18:02N 44°24' E 008°55'0 0.1
2018-Oct-04 17:58N 44°24' E 008°55'0 0.0
2018-Oct-04 17:29N 44°24' E 008°55'0 0.0
2018-Oct-04 17:02N 44°24' E 008°55'0 0.0
2018-Oct-04 16:59N 44°24' E 008°55'0 0.0
2018-Oct-04 16:29N 44°24' E 008°55'0 0.0
2018-Oct-04 16:02N 44°24' E 008°55'0 0.1
2018-Oct-04 15:59N 44°24' E 008°55'0 0.0
2018-Oct-04 15:29N 44°24' E 008°55'0 0.0
2018-Oct-04 15:02N 44°24' E 008°55'0 0.0
2018-Oct-04 14:59N 44°24' E 008°55'0 0.0
2018-Oct-04 14:28N 44°24' E 008°55'0 0.0
2018-Oct-04 14:02N 44°24' E 008°55'0 0.0
2018-Oct-04 13:59N 44°24' E 008°55'0 0.0
2018-Oct-04 13:29N 44°24' E 008°55'0 0.0
2018-Oct-04 13:02N 44°24' E 008°55'0 0.0
2018-Oct-04 12:59N 44°24' E 008°55'0 0.0
2018-Oct-04 12:29N 44°24' E 008°55'0 0.0
2018-Oct-04 12:01N 44°24' E 008°55'0 0.0
2018-Oct-04 11:59N 44°24' E 008°55'0 0.0
2018-Oct-04 11:29N 44°24' E 008°55'0 0.0
2018-Oct-04 11:02N 44°24' E 008°55'0 0.0
2018-Oct-04 10:59N 44°24' E 008°55'0 0.0
2018-Oct-04 10:28N 44°24' E 008°55'0 0.0
2018-Oct-04 10:01N 44°24' E 008°55'0 0.0
2018-Oct-04 09:59N 44°24' E 008°55'0 0.0
2018-Oct-04 09:29N 44°24' E 008°55'0 0.0
2018-Oct-04 09:02N 44°24' E 008°55'0 0.1
2018-Oct-04 08:58N 44°24' E 008°55'0 0.0
2018-Oct-04 08:29N 44°24' E 008°55'0 0.0
2018-Oct-04 08:01N 44°24' E 008°55'0 0.0
2018-Oct-04 07:59N 44°24' E 008°55'0 0.0
2018-Oct-04 07:28N 44°24' E 008°55'0 0.0
2018-Oct-04 07:01N 44°24' E 008°55'0 0.1
2018-Oct-04 06:58N 44°24' E 008°55'0 0.0
2018-Oct-04 06:28N 44°24' E 008°55'0 0.0
2018-Oct-04 06:01N 44°24' E 008°55'0 0.0
2018-Oct-04 05:59N 44°24' E 008°55'0 0.0
2018-Oct-04 05:28N 44°24' E 008°55'0 0.0
2018-Oct-04 05:02N 44°24' E 008°55'0 0.0
2018-Oct-04 04:58N 44°24' E 008°55'0 0.0
2018-Oct-04 04:29N 44°24' E 008°55'0 0.0
2018-Oct-04 04:01N 44°24' E 008°55'0 0.0
2018-Oct-04 03:59N 44°24' E 008°55'0 0.0
2018-Oct-04 03:28N 44°24' E 008°55'0 0.0
2018-Oct-04 03:01N 44°24' E 008°55'0 0.0
2018-Oct-04 02:58N 44°24' E 008°55'0 0.0
2018-Oct-04 02:28N 44°24' E 008°55'0 0.0
2018-Oct-04 02:01N 44°24' E 008°55'0 0.0
2018-Oct-04 01:59N 44°24' E 008°55'0 0.0
2018-Oct-04 01:28N 44°24' E 008°55'0 0.0
2018-Oct-04 01:01N 44°24' E 008°55'0 0.0
2018-Oct-04 00:58N 44°24' E 008°55'0 0.0
2018-Oct-04 00:29N 44°24' E 008°55'0 0.0
2018-Oct-04 00:01N 44°24' E 008°55'0 0.0
2018-Oct-03 23:58N 44°24' E 008°55'0 0.0
2018-Oct-03 23:28N 44°24' E 008°55'0 0.0
2018-Oct-03 23:01N 44°24' E 008°55'0 0.0
2018-Oct-03 22:58N 44°24' E 008°55'0 0.0
2018-Oct-03 22:28N 44°24' E 008°55'0 0.0
2018-Oct-03 21:58N 44°24' E 008°55'0 0.0
2018-Oct-03 21:25N 44°24' E 008°55'0 0.0
2018-Oct-03 21:02N 44°24' E 008°55'0 0.0
2018-Oct-03 20:58N 44°24' E 008°55'0 0.0
2018-Oct-03 20:28N 44°24' E 008°55'0 0.0
2018-Oct-03 19:58N 44°24' E 008°55'0 0.0
2018-Oct-03 19:28N 44°24' E 008°55'0 0.0
2018-Oct-03 19:01N 44°24' E 008°55'0 0.1
2018-Oct-03 18:58N 44°24' E 008°55'0 0.0
2018-Oct-03 18:28N 44°24' E 008°55'0 0.0
2018-Oct-03 18:01N 44°24' E 008°55'0 0.0
2018-Oct-03 17:58N 44°24' E 008°55'0 0.0
2018-Oct-03 17:28N 44°24' E 008°55'0 0.0
2018-Oct-03 17:01N 44°24' E 008°55'0 0.0
2018-Oct-03 16:58N 44°24' E 008°55'0 0.0
2018-Oct-03 16:28N 44°24' E 008°55'0 0.0
2018-Oct-03 16:01N 44°24' E 008°55'0 0.0
2018-Oct-03 15:58N 44°24' E 008°55'0 0.0
2018-Oct-03 15:28N 44°24' E 008°55'0 0.0
2018-Oct-03 15:01N 44°24' E 008°55'0 0.0
2018-Oct-03 14:58N 44°24' E 008°55'0 0.0
2018-Oct-03 14:28N 44°24' E 008°55'0 0.0
2018-Oct-03 13:55N 44°24' E 008°55'0 0.0
2018-Oct-03 13:28N 44°24' E 008°55'0 0.0
2018-Oct-03 13:01N 44°24' E 008°55'0 0.0
2018-Oct-03 12:58N 44°24' E 008°55'0 0.0
2018-Oct-03 12:28N 44°24' E 008°55'0 0.0
2018-Oct-03 12:01N 44°24' E 008°55'0 0.0
2018-Oct-03 11:58N 44°24' E 008°55'0 0.0
2018-Oct-03 11:28N 44°24' E 008°55'0 0.0
2018-Oct-03 11:01N 44°24' E 008°55'0 0.0
2018-Oct-03 10:55N 44°24' E 008°55'0 0.0
2018-Oct-03 10:28N 44°24' E 008°55'0 0.0
2018-Oct-03 10:01N 44°24' E 008°55'0 0.0
2018-Oct-03 09:58N 44°24' E 008°55'0 0.0
2018-Oct-03 09:28N 44°24' E 008°55'0 0.0
2018-Oct-03 09:01N 44°24' E 008°55'0 0.0
2018-Oct-03 08:58N 44°24' E 008°55'0 0.0
2018-Oct-03 08:28N 44°24' E 008°55'  
Track history (hours):
 
Tides and Currents Weather Stations Pressure Air Temp Water Temp Dewpoint Dewpoint Depression Visibility Wind Speed Wind Dir Waves Ship Positions

Berga II

Last reported at 2018-Oct-13 08:18 UTC. Time now 2018-Oct-17 20:46 UTC.
Position N 36°28' E 000°39'.

Length 174 m; draft 6.5 m.

Type: Ship (hazmat cat B). MMSI: 605076051.

Date/timePositionNaut miles runAvg speedWind from/ knotsBaromVisibWave heightAir tempDewpointWater temp
2018-Oct-13 08:18N 36°28' E 000°39'10513.8
2018-Oct-13 00:42N 37°03' E 002°43'48310.3
2018-Oct-11 02:00N 43°06' E 009°38'713.7
2018-Oct-11 01:30N 43°12' E 009°42'613.4
2018-Oct-11 01:03N 43°18' E 009°42'113.9
2018-Oct-11 01:00N 43°19' E 009°42'714.1
2018-Oct-11 00:30N 43°24' E 009°35'614.1
2018-Oct-11 00:03N 43°29' E 009°30'113.9
2018-Oct-11 00:00N 43°30' E 009°29'713.4
2018-Oct-10 23:30N 43°36' E 009°25'613.4
2018-Oct-10 23:03N 43°41' E 009°21'113.5
2018-Oct-10 23:00N 43°42' E 009°21'713.7
2018-Oct-10 22:30N 43°48' E 009°16'613.7
2018-Oct-10 22:03N 43°53' E 009°11'113.5
2018-Oct-10 22:00N 43°54' E 009°11'612.9
2018-Oct-10 21:30N 43°60' E 009°08'511.4
2018-Oct-10 21:03N 44°04' E 009°05'111.3
2018-Oct-10 21:00N 44°05' E 009°05'611.1
2018-Oct-10 20:30N 44°10' E 009°02'4 9.8
2018-Oct-10 20:03N 44°14' E 009°01'0 8.3
2018-Oct-10 20:00N 44°15' E 009°00'4 8.3
2018-Oct-10 19:30N 44°19' E 008°60'1 2.8
2018-Oct-10 19:03N 44°20' E 009°00'0 1.9
2018-Oct-10 19:00N 44°20' E 009°00'2 3.8
2018-Oct-10 18:30N 44°18' E 009°00'2 3.7
2018-Oct-10 18:03N 44°18' E 008°58'0 3.5
2018-Oct-10 18:00N 44°18' E 008°58'2 3.6
2018-Oct-10 17:30N 44°16' E 008°56'1 1.3
2018-Oct-10 17:03N 44°16' E 008°57'0 1.7
2018-Oct-10 17:00N 44°16' E 008°57'1 2.8
2018-Oct-10 16:31N 44°15' E 008°59'1 1.2
2018-Oct-10 16:03N 44°16' E 008°59'0 0.5
2018-Oct-10 16:00N 44°16' E 008°59'1 2.1
2018-Oct-10 15:30N 44°15' E 008°58'1 2.2
2018-Oct-10 15:04N 44°16' E 008°58'0 1.9
2018-Oct-10 15:00N 44°16' E 008°58'4 4.5
2018-Oct-10 14:03N 44°12' E 008°59'0 3.2
2018-Oct-10 14:00N 44°11' E 008°59'2 3.4
2018-Oct-10 13:30N 44°10' E 008°59'0 0.4
2018-Oct-10 13:03N 44°10' E 008°59'0 2.6
2018-Oct-10 13:00N 44°10' E 008°59'1 1.7
2018-Oct-10 12:30N 44°10' E 008°58'0 0.5
2018-Oct-10 12:03N 44°10' E 008°58'0 9.4
2018-Oct-10 12:00N 44°10' E 008°58'4 8.1
2018-Oct-10 11:30N 44°07' E 009°02'511.0
2018-Oct-10 11:03N 44°11' E 008°59'112.0
2018-Oct-10 11:00N 44°12' E 008°59'2 3.0
2018-Oct-10 10:30N 44°13' E 008°58'3 6.4
2018-Oct-10 10:03N 44°16' E 008°58'0 8.5
2018-Oct-10 10:00N 44°16' E 008°58'4 8.6
2018-Oct-10 09:30N 44°21' E 008°57'3 7.3
2018-Oct-10 09:02N 44°24' E 008°56'0 0.6
2018-Oct-10 08:59N 44°24' E 008°56'0 0.0
2018-Oct-10 08:29N 44°24' E 008°56'0 0.0
2018-Oct-10 08:03N 44°24' E 008°56'0 0.0
2018-Oct-10 07:59N 44°24' E 008°56'0 0.0
2018-Oct-10 07:29N 44°24' E 008°56'0 0.0
2018-Oct-10 07:02N 44°24' E 008°56'0 0.0
2018-Oct-10 06:59N 44°24' E 008°56'0 0.0
2018-Oct-10 06:29N 44°24' E 008°56'0 0.0
2018-Oct-10 06:02N 44°24' E 008°56'0 0.0
2018-Oct-10 05:59N 44°24' E 008°56'0 0.0
2018-Oct-10 05:29N 44°24' E 008°56'0 0.0
2018-Oct-10 05:02N 44°24' E 008°56'0 0.0
2018-Oct-10 04:59N 44°24' E 008°56'0 0.0
2018-Oct-10 04:29N 44°24' E 008°56'0 0.0
2018-Oct-10 04:02N 44°24' E 008°56'0 0.1
2018-Oct-10 03:59N 44°24' E 008°56'0 0.0
2018-Oct-10 03:29N 44°24' E 008°56'0 0.0
2018-Oct-10 03:02N 44°24' E 008°56'0 0.0
2018-Oct-10 02:59N 44°24' E 008°56'0 0.0
2018-Oct-10 02:29N 44°24' E 008°56'0 0.0
2018-Oct-10 02:02N 44°24' E 008°56'0 0.0
2018-Oct-10 01:59N 44°24' E 008°56'0 0.0
2018-Oct-10 01:29N 44°24' E 008°56'0 0.0
2018-Oct-10 01:02N 44°24' E 008°56'0 0.0
2018-Oct-10 00:59N 44°24' E 008°56'0 0.0
2018-Oct-10 00:29N 44°24' E 008°56'0 0.0
2018-Oct-10 00:02N 44°24' E 008°56'0 0.0
2018-Oct-09 23:59N 44°24' E 008°56'0 0.0
2018-Oct-09 23:29N 44°24' E 008°56'0 0.0
2018-Oct-09 23:02N 44°24' E 008°56'0 0.1
2018-Oct-09 22:59N 44°24' E 008°56'0 0.0
2018-Oct-09 22:29N 44°24' E 008°56'0 0.0
2018-Oct-09 22:02N 44°24' E 008°56'0 0.0
2018-Oct-09 21:59N 44°24' E 008°56'0 0.0
2018-Oct-09 21:29N 44°24' E 008°56'0 0.0
2018-Oct-09 21:02N 44°24' E 008°56'0 0.0
2018-Oct-09 20:59N 44°24' E 008°56'0 0.0
2018-Oct-09 20:29N 44°24' E 008°56'0 0.0
2018-Oct-09 20:02N 44°24' E 008°56'0 0.1
2018-Oct-09 19:59N 44°24' E 008°56'0 0.0
2018-Oct-09 19:29N 44°24' E 008°56'0 0.0
2018-Oct-09 19:02N 44°24' E 008°56'0 0.0
2018-Oct-09 18:59N 44°24' E 008°56'0 0.0
2018-Oct-09 18:29N 44°24' E 008°56'0 0.0
2018-Oct-09 18:02N 44°24' E 008°56'0 0.0
2018-Oct-09 17:59N 44°24' E 008°56'0 0.0
2018-Oct-09 17:29N 44°24' E 008°56'0 0.0
2018-Oct-09 17:02N 44°24' E 008°56'0 0.1
2018-Oct-09 16:56N 44°24' E 008°56'0 0.0
2018-Oct-09 16:29N 44°24' E 008°56'0 0.0
2018-Oct-09 16:02N 44°24' E 008°56'0 0.1
2018-Oct-09 15:59N 44°24' E 008°56'0 0.0
2018-Oct-09 15:29N 44°24' E 008°56'0 0.0
2018-Oct-09 15:02N 44°24' E 008°56'0 0.1
2018-Oct-09 14:59N 44°24' E 008°56'0 0.0
2018-Oct-09 13:59N 44°24' E 008°56'0 0.0
2018-Oct-09 13:29N 44°24' E 008°56'0 0.0
2018-Oct-09 13:02N 44°24' E 008°56'0 0.0
2018-Oct-09 12:59N 44°24' E 008°56'0 0.0
2018-Oct-09 12:29N 44°24' E 008°56'0 0.0
2018-Oct-09 12:02N 44°24' E 008°56'0 0.1
2018-Oct-09 11:59N 44°24' E 008°56'0 0.0
2018-Oct-09 11:29N 44°24' E 008°56'0 0.0
2018-Oct-09 11:02N 44°24' E 008°56'0 0.1
2018-Oct-09 10:59N 44°24' E 008°56'0 0.0
2018-Oct-09 10:29N 44°24' E 008°56'0 0.0
2018-Oct-09 10:02N 44°24' E 008°56'0 0.0
2018-Oct-09 09:59N 44°24' E 008°56'0 0.0
2018-Oct-09 09:29N 44°24' E 008°56'0 0.0
2018-Oct-09 09:02N 44°24' E 008°56'0 0.0
2018-Oct-09 08:59N 44°24' E 008°56'0 0.0
2018-Oct-09 08:29N 44°24' E 008°56'0 0.0
2018-Oct-09 08:02N 44°24' E 008°56'0 0.0
2018-Oct-09 07:59N 44°24' E 008°56'0 0.0
2018-Oct-09 07:29N 44°24' E 008°56'0 0.0
2018-Oct-09 07:02N 44°24' E 008°56'0 0.1
2018-Oct-09 06:59N 44°24' E 008°56'0 0.0
2018-Oct-09 06:29N 44°24' E 008°56'0 0.0
2018-Oct-09 06:02N 44°24' E 008°56'0 0.0
2018-Oct-09 05:59N 44°24' E 008°56'0 0.0
2018-Oct-09 05:29N 44°24' E 008°56'0 0.0
2018-Oct-09 05:02N 44°24' E 008°56'0 0.1
2018-Oct-09 04:59N 44°24' E 008°56'0 0.0
2018-Oct-09 04:29N 44°24' E 008°56'0 0.0
2018-Oct-09 03:59N 44°24' E 008°56'0 0.0
2018-Oct-09 03:29N 44°24' E 008°56'0 0.0
2018-Oct-09 03:02N 44°24' E 008°56'0 0.0
2018-Oct-09 02:59N 44°24' E 008°56'0 0.0
2018-Oct-09 02:29N 44°24' E 008°56'0 0.0
2018-Oct-09 02:02N 44°24' E 008°56'0 0.0
2018-Oct-09 01:59N 44°24' E 008°56'0 0.0
2018-Oct-09 01:29N 44°24' E 008°56'0 0.0
2018-Oct-09 01:02N 44°24' E 008°56'0 0.0
2018-Oct-09 00:59N 44°24' E 008°56'0 0.0
2018-Oct-09 00:29N 44°24' E 008°56'0 0.0
2018-Oct-09 00:02N 44°24' E 008°56'0 0.1
2018-Oct-08 23:59N 44°24' E 008°56'0 0.0
2018-Oct-08 23:29N 44°24' E 008°56'0 0.0
2018-Oct-08 23:02N 44°24' E 008°56'0 0.0
2018-Oct-08 22:59N 44°24' E 008°56'0 0.0
2018-Oct-08 22:29N 44°24' E 008°56'0 0.0
2018-Oct-08 22:02N 44°24' E 008°56'0 0.1
2018-Oct-08 21:59N 44°24' E 008°56'0 0.0
2018-Oct-08 21:29N 44°24' E 008°56'0 0.0
2018-Oct-08 21:02N 44°24' E 008°56'0 0.1
2018-Oct-08 20:59N 44°24' E 008°56'0 0.0
2018-Oct-08 20:29N 44°24' E 008°56'0 0.0
2018-Oct-08 20:02N 44°24' E 008°56'0 0.1
2018-Oct-08 19:59N 44°24' E 008°56'0 0.0
2018-Oct-08 19:29N 44°24' E 008°56'0 0.0
2018-Oct-08 19:02N 44°24' E 008°56'0 0.1
2018-Oct-08 18:59N 44°24' E 008°56'0 0.0
2018-Oct-08 18:29N 44°24' E 008°56'0 0.0
2018-Oct-08 18:02N 44°24' E 008°56'0 0.0
2018-Oct-08 17:59N 44°24' E 008°56'0 0.0
2018-Oct-08 17:29N 44°24' E 008°56'0 0.0
2018-Oct-08 17:02N 44°24' E 008°56'0 0.0
2018-Oct-08 16:59N 44°24' E 008°56'0 0.0
2018-Oct-08 16:29N 44°24' E 008°56'0 0.0
2018-Oct-08 16:02N 44°24' E 008°56'0 0.0
2018-Oct-08 15:59N 44°24' E 008°56'0 0.0
2018-Oct-08 15:29N 44°24' E 008°56'0 0.0
2018-Oct-08 15:02N 44°24' E 008°56'0 0.0
2018-Oct-08 14:59N 44°24' E 008°56'0 0.0
2018-Oct-08 14:02N 44°24' E 008°56'0 0.1
2018-Oct-08 13:59N 44°24' E 008°56'0 0.0
2018-Oct-08 13:29N 44°24' E 008°56'0 0.0
2018-Oct-08 13:02N 44°24' E 008°56'0 0.0
2018-Oct-08 12:59N 44°24' E 008°56'0 0.0
2018-Oct-08 12:29N 44°24' E 008°56'0 0.0
2018-Oct-08 12:02N 44°24' E 008°56'0 0.0
2018-Oct-08 11:59N 44°24' E 008°56'0 0.0
2018-Oct-08 11:29N 44°24' E 008°56'0 0.0
2018-Oct-08 11:02N 44°24' E 008°56'0 0.0
2018-Oct-08 10:59N 44°24' E 008°56'0 0.0
2018-Oct-08 10:29N 44°24' E 008°56'0 0.0
2018-Oct-08 10:02N 44°24' E 008°56'0 0.0
2018-Oct-08 09:59N 44°24' E 008°56'0 0.0
2018-Oct-08 09:29N 44°24' E 008°56'0 0.0
2018-Oct-08 09:02N 44°24' E 008°56'0 0.0
2018-Oct-08 08:59N 44°24' E 008°56'0 0.0
2018-Oct-08 08:29N 44°24' E 008°56'0 0.0
2018-Oct-08 08:02N 44°24' E 008°56'0 0.0
2018-Oct-08 07:59N 44°24' E 008°56'0 0.0
2018-Oct-08 07:29N 44°24' E 008°56'0 0.0
2018-Oct-08 07:02N 44°24' E 008°56'0 0.1
2018-Oct-08 06:59N 44°24' E 008°56'0 0.0
2018-Oct-08 06:29N 44°24' E 008°56'0 0.0
2018-Oct-08 06:02N 44°24' E 008°56'0 0.0
2018-Oct-08 05:56N 44°24' E 008°56'0 0.0
2018-Oct-08 05:29N 44°24' E 008°56'0 0.0
2018-Oct-08 05:02N 44°24' E 008°56'0 0.1
2018-Oct-08 04:59N 44°24' E 008°56'0 0.0
2018-Oct-08 04:29N 44°24' E 008°56'0 0.0
2018-Oct-08 04:02N 44°24' E 008°56'0 0.0
2018-Oct-08 03:59N 44°24' E 008°56'0 0.0
2018-Oct-08 03:30N 44°24' E 008°56'0 0.0
2018-Oct-08 03:02N 44°24' E 008°56'0 0.0
2018-Oct-08 02:59N 44°24' E 008°56'0 0.0
2018-Oct-08 02:29N 44°24' E 008°56'0 0.0
2018-Oct-08 02:02N 44°24' E 008°56'0 0.1
2018-Oct-08 01:59N 44°24' E 008°56'0 0.0
2018-Oct-08 01:29N 44°24' E 008°56'0 0.0
2018-Oct-08 01:02N 44°24' E 008°56'0 0.0
2018-Oct-08 00:59N 44°24' E 008°56'0 0.0
2018-Oct-08 00:29N 44°24' E 008°56'0 0.0
2018-Oct-08 00:02N 44°24' E 008°56'0 0.1
2018-Oct-07 23:59N 44°24' E 008°56'0 0.0
2018-Oct-07 23:29N 44°24' E 008°56'0 0.0
2018-Oct-07 23:02N 44°24' E 008°56'0 0.0
2018-Oct-07 22:59N 44°24' E 008°56'0 0.0
2018-Oct-07 22:29N 44°24' E 008°56'0 0.0
2018-Oct-07 22:02N 44°24' E 008°56'0 0.0
2018-Oct-07 21:59N 44°24' E 008°56'0 0.0
2018-Oct-07 21:29N 44°24' E 008°56'0 0.0
2018-Oct-07 21:02N 44°24' E 008°56'0 0.0
2018-Oct-07 20:59N 44°24' E 008°56'0 0.0
2018-Oct-07 20:29N 44°24' E 008°56'0 0.0
2018-Oct-07 20:02N 44°24' E 008°56'0 0.0
2018-Oct-07 19:59N 44°24' E 008°56'0 0.0
2018-Oct-07 19:29N 44°24' E 008°56'0 0.0
2018-Oct-07 19:02N 44°24' E 008°56'0 0.0
2018-Oct-07 18:59N 44°24' E 008°56'0 0.0
2018-Oct-07 18:29N 44°24' E 008°56'0 0.0
2018-Oct-07 18:02N 44°24' E 008°56'0 0.1
2018-Oct-07 17:59N 44°24' E 008°56'0 0.0
2018-Oct-07 17:29N 44°24' E 008°56'0 0.0
2018-Oct-07 17:02N 44°24' E 008°56'0 0.0
2018-Oct-07 16:59N 44°24' E 008°56'0 0.0
2018-Oct-07 16:29N 44°24' E 008°56'0 0.0
2018-Oct-07 16:02N 44°24' E 008°56'0 0.1
2018-Oct-07 15:59N 44°24' E 008°56'0 0.0
2018-Oct-07 15:29N 44°24' E 008°56'0 0.0
2018-Oct-07 15:02N 44°24' E 008°56'0 0.0
2018-Oct-07 14:59N 44°24' E 008°56'0 0.0
2018-Oct-07 14:02N 44°24' E 008°56'0 0.1
2018-Oct-07 13:59N 44°24' E 008°56'0 0.0
2018-Oct-07 13:26N 44°24' E 008°56'0 0.0
2018-Oct-07 13:02N 44°24' E 008°56'0 0.0
2018-Oct-07 12:59N 44°24' E 008°56'0 0.0
2018-Oct-07 12:28N 44°24' E 008°56'0 0.0
2018-Oct-07 12:01N 44°24' E 008°56'0 0.0
2018-Oct-07 11:58N 44°24' E 008°56'0 0.0
2018-Oct-07 11:28N 44°24' E 008°56'0 0.0
2018-Oct-07 11:01N 44°24' E 008°56'0 0.1
2018-Oct-07 10:58N 44°24' E 008°56'0 0.0
2018-Oct-07 10:28N 44°24' E 008°56'0 0.0
2018-Oct-07 10:01N 44°24' E 008°56'0 0.0
2018-Oct-07 09:58N 44°24' E 008°56'0 0.3
2018-Oct-07 09:31N 44°24' E 008°55'0 0.6
2018-Oct-07 09:02N 44°24' E 008°55'0 0.0
2018-Oct-07 08:59N 44°24' E 008°55'0 0.0
2018-Oct-07 08:29N 44°24' E 008°55'0 0.0
2018-Oct-07 08:02N 44°24' E 008°55'0 0.0
2018-Oct-07 07:59N 44°24' E 008°55'0 0.0
2018-Oct-07 07:29N 44°24' E 008°55'0 0.0
2018-Oct-07 07:02N 44°24' E 008°55'0 0.0
2018-Oct-07 06:59N 44°24' E 008°55'0 0.0
2018-Oct-07 06:29N 44°24' E 008°55'0 0.0
2018-Oct-07 06:02N 44°24' E 008°55'0 0.0
2018-Oct-07 05:59N 44°24' E 008°55'0 0.0
2018-Oct-07 05:29N 44°24' E 008°55'0 0.0
2018-Oct-07 05:02N 44°24' E 008°55'0 0.0
2018-Oct-07 04:59N 44°24' E 008°55'0 0.0
2018-Oct-07 04:29N 44°24' E 008°55'0 0.0
2018-Oct-07 04:02N 44°24' E 008°55'0 0.0
2018-Oct-07 03:59N 44°24' E 008°55'0 0.0
2018-Oct-07 03:29N 44°24' E 008°55'0 0.0
2018-Oct-07 03:02N 44°24' E 008°55'0 0.0
2018-Oct-07 02:59N 44°24' E 008°55'0 0.0
2018-Oct-07 02:29N 44°24' E 008°55'0 0.0
2018-Oct-07 02:02N 44°24' E 008°55'0 0.0
2018-Oct-07 01:59N 44°24' E 008°55'0 0.0
2018-Oct-07 01:29N 44°24' E 008°55'0 0.0
2018-Oct-07 01:02N 44°24' E 008°55'0 0.0
2018-Oct-07 00:59N 44°24' E 008°55'0 0.0
2018-Oct-07 00:29N 44°24' E 008°55'0 0.0
2018-Oct-07 00:02N 44°24' E 008°55'0 0.0
2018-Oct-06 23:59N 44°24' E 008°55'0 0.0
2018-Oct-06 23:29N 44°24' E 008°55'0 0.0
2018-Oct-06 23:02N 44°24' E 008°55'0 0.0
2018-Oct-06 22:59N 44°24' E 008°55'0 0.0
2018-Oct-06 22:29N 44°24' E 008°55'0 0.0
2018-Oct-06 22:02N 44°24' E 008°55'0 0.0
2018-Oct-06 21:59N 44°24' E 008°55'0 0.0
2018-Oct-06 21:29N 44°24' E 008°55'0 0.0
2018-Oct-06 21:02N 44°24' E 008°55'0 0.0
2018-Oct-06 20:59N 44°24' E 008°55'0 0.0
2018-Oct-06 20:29N 44°24' E 008°55'0 0.0
2018-Oct-06 20:02N 44°24' E 008°55'0 0.0
2018-Oct-06 19:59N 44°24' E 008°55'0 0.0
2018-Oct-06 19:29N 44°24' E 008°55'0 0.0
2018-Oct-06 19:02N 44°24' E 008°55'0 0.0
2018-Oct-06 18:59N 44°24' E 008°55'0 0.0
2018-Oct-06 18:29N 44°24' E 008°55'0 0.0
2018-Oct-06 18:02N 44°24' E 008°55'0 0.0
2018-Oct-06 17:59N 44°24' E 008°55'0 0.0
2018-Oct-06 17:29N 44°24' E 008°55'0 0.0
2018-Oct-06 17:02N 44°24' E 008°55'0 0.0
2018-Oct-06 16:59N 44°24' E 008°55'0 0.0
2018-Oct-06 16:29N 44°24' E 008°55'0 0.0
2018-Oct-06 15:59N 44°24' E 008°55'0 0.0
2018-Oct-06 15:29N 44°24' E 008°55'0 0.0
2018-Oct-06 15:02N 44°24' E 008°55'0 0.0
2018-Oct-06 14:59N 44°24' E 008°55'0 0.0
2018-Oct-06 14:29N 44°24' E 008°55'0 0.0
2018-Oct-06 13:59N 44°24' E 008°55'0 0.0
2018-Oct-06 13:29N 44°24' E 008°55'0 0.0
2018-Oct-06 13:02N 44°24' E 008°55'0 0.0
2018-Oct-06 12:59N 44°24' E 008°55'0 0.0
2018-Oct-06 12:29N 44°24' E 008°55'0 0.0
2018-Oct-06 12:02N 44°24' E 008°55'0 0.0
2018-Oct-06 11:59N 44°24' E 008°55'0 0.0
2018-Oct-06 11:29N 44°24' E 008°55'0 0.0
2018-Oct-06 11:02N 44°24' E 008°55'0 0.0
2018-Oct-06 10:59N 44°24' E 008°55'0 0.0
2018-Oct-06 10:29N 44°24' E 008°55'0 0.0
2018-Oct-06 09:59N 44°24' E 008°55'0 0.0
2018-Oct-06 09:29N 44°24' E 008°55'0 0.0
2018-Oct-06 09:02N 44°24' E 008°55'0 0.0
2018-Oct-06 08:56N 44°24' E 008°55'0 0.0
2018-Oct-06 08:26N 44°24' E 008°55'0 0.0
2018-Oct-06 08:02N 44°24' E 008°55'0 0.0
2018-Oct-06 07:59N 44°24' E 008°55'0 0.0
2018-Oct-06 07:29N 44°24' E 008°55'0 0.0
2018-Oct-06 07:02N 44°24' E 008°55'0 0.0
2018-Oct-06 06:59N 44°24' E 008°55'0 0.0
2018-Oct-06 06:29N 44°24' E 008°55'0 0.0
2018-Oct-06 06:02N 44°24' E 008°55'0 0.1
2018-Oct-06 05:59N 44°24' E 008°55'0 0.0
2018-Oct-06 05:29N 44°24' E 008°55'0 0.0
2018-Oct-06 05:02N 44°24' E 008°55'0 0.1
2018-Oct-06 04:59N 44°24' E 008°55'0 0.0
2018-Oct-06 04:29N 44°24' E 008°55'0 0.0
2018-Oct-06 04:02N 44°24' E 008°55'0 0.0
2018-Oct-06 03:59N 44°24' E 008°55'0 0.0
2018-Oct-06 03:29N 44°24' E 008°55'0 0.0
2018-Oct-06 03:02N 44°24' E 008°55'0 0.0
2018-Oct-06 02:59N 44°24' E 008°55'0 0.0
2018-Oct-06 02:29N 44°24' E 008°55'0 0.0
2018-Oct-06 02:02N 44°24' E 008°55'0 0.0
2018-Oct-06 01:59N 44°24' E 008°55'0 0.0
2018-Oct-06 01:29N 44°24' E 008°55'0 0.0
2018-Oct-06 01:02N 44°24' E 008°55'0 0.0
2018-Oct-06 00:59N 44°24' E 008°55'0 0.0
2018-Oct-06 00:29N 44°24' E 008°55'0 0.0
2018-Oct-06 00:02N 44°24' E 008°55'0 0.0
2018-Oct-05 23:59N 44°24' E 008°55'0 0.0
2018-Oct-05 23:29N 44°24' E 008°55'0 0.0
2018-Oct-05 23:02N 44°24' E 008°55'0 0.0
2018-Oct-05 22:59N 44°24' E 008°55'0 0.0
2018-Oct-05 22:29N 44°24' E 008°55'0 0.0
2018-Oct-05 22:02N 44°24' E 008°55'0 0.0
2018-Oct-05 21:59N 44°24' E 008°55'0 0.0
2018-Oct-05 21:29N 44°24' E 008°55'0 0.0
2018-Oct-05 21:02N 44°24' E 008°55'0 0.0
2018-Oct-05 20:59N 44°24' E 008°55'0 0.0
2018-Oct-05 20:29N 44°24' E 008°55'0 0.0
2018-Oct-05 20:02N 44°24' E 008°55'0 0.0
2018-Oct-05 19:59N 44°24' E 008°55'0 0.0
2018-Oct-05 19:29N 44°24' E 008°55'0 0.0
2018-Oct-05 19:02N 44°24' E 008°55'0 0.0
2018-Oct-05 18:59N 44°24' E 008°55'0 0.0
2018-Oct-05 18:26N 44°24' E 008°55'0 0.0
2018-Oct-05 18:02N 44°24' E 008°55'0 0.0
2018-Oct-05 17:59N 44°24' E 008°55'0 0.0
2018-Oct-05 17:26N 44°24' E 008°55'0 0.0
2018-Oct-05 17:02N 44°24' E 008°55'0 0.0
2018-Oct-05 16:59N 44°24' E 008°55'0 0.0
2018-Oct-05 16:29N 44°24' E 008°55'0 0.0
2018-Oct-05 16:02N 44°24' E 008°55'0 0.0
2018-Oct-05 15:59N 44°24' E 008°55'0 0.0
2018-Oct-05 15:29N 44°24' E 008°55'0 0.0
2018-Oct-05 15:02N 44°24' E 008°55'0 0.0
2018-Oct-05 14:59N 44°24' E 008°55'0 0.0
2018-Oct-05 14:29N 44°24' E 008°55'0 0.0
2018-Oct-05 13:59N 44°24' E 008°55'0 0.0
2018-Oct-05 13:29N 44°24' E 008°55'0 0.0
2018-Oct-05 13:02N 44°24' E 008°55'0 0.0
2018-Oct-05 12:59N 44°24' E 008°55'0 0.0
2018-Oct-05 12:29N 44°24' E 008°55'0 0.0
2018-Oct-05 12:02N 44°24' E 008°55'0 0.0
2018-Oct-05 11:59N 44°24' E 008°55'0 0.0
2018-Oct-05 11:29N 44°24' E 008°55'0 0.0
2018-Oct-05 11:02N 44°24' E 008°55'0 0.0
2018-Oct-05 10:59N 44°24' E 008°55'0 0.0
2018-Oct-05 10:29N 44°24' E 008°55'0 0.0
2018-Oct-05 10:02N 44°24' E 008°55'0 0.0
2018-Oct-05 09:59N 44°24' E 008°55'0 0.0
2018-Oct-05 09:29N 44°24' E 008°55'0 0.0
2018-Oct-05 09:02N 44°24' E 008°55'0 0.0
2018-Oct-05 08:59N 44°24' E 008°55'0 0.0
2018-Oct-05 08:26N 44°24' E 008°55'0 0.0
2018-Oct-05 08:02N 44°24' E 008°55'0 0.0
2018-Oct-05 07:59N 44°24' E 008°55'0 0.0
2018-Oct-05 07:29N 44°24' E 008°55'0 0.0
2018-Oct-05 07:02N 44°24' E 008°55'0 0.0
2018-Oct-05 06:59N 44°24' E 008°55'0 0.0
2018-Oct-05 06:29N 44°24' E 008°55'0 0.0
2018-Oct-05 06:02N 44°24' E 008°55'0 0.0
2018-Oct-05 05:59N 44°24' E 008°55'0 0.0
2018-Oct-05 05:29N 44°24' E 008°55'0 0.0
2018-Oct-05 05:02N 44°24' E 008°55'0 0.0
2018-Oct-05 04:59N 44°24' E 008°55'0 0.0
2018-Oct-05 04:29N 44°24' E 008°55'0 0.0
2018-Oct-05 04:02N 44°24' E 008°55'0 0.0
2018-Oct-05 03:59N 44°24' E 008°55'0 0.0
2018-Oct-05 03:29N 44°24' E 008°55'0 0.0
2018-Oct-05 03:02N 44°24' E 008°55'0 0.0
2018-Oct-05 02:59N 44°24' E 008°55'0 0.0
2018-Oct-05 02:29N 44°24' E 008°55'0 0.0
2018-Oct-05 02:02N 44°24' E 008°55'0 0.0
2018-Oct-05 01:59N 44°24' E 008°55'0 0.0
2018-Oct-05 01:29N 44°24' E 008°55'0 0.0
2018-Oct-05 01:02N 44°24' E 008°55'0 0.0
2018-Oct-05 00:59N 44°24' E 008°55'0 0.0
2018-Oct-05 00:29N 44°24' E 008°55'0 0.0
2018-Oct-05 00:02N 44°24' E 008°55'0 0.0
2018-Oct-04 23:59N 44°24' E 008°55'0 0.0
2018-Oct-04 23:29N 44°24' E 008°55'0 0.0
2018-Oct-04 23:02N 44°24' E 008°55'0 0.0
2018-Oct-04 22:59N 44°24' E 008°55'0 0.0
2018-Oct-04 22:29N 44°24' E 008°55'0 0.0
2018-Oct-04 22:02N 44°24' E 008°55'0 0.0
2018-Oct-04 21:59N 44°24' E 008°55'0 0.0
2018-Oct-04 21:28N 44°24' E 008°55'0 0.0
2018-Oct-04 21:02N 44°24' E 008°55'0 0.0
2018-Oct-04 20:59N 44°24' E 008°55'0 0.0
2018-Oct-04 20:29N 44°24' E 008°55'0 0.0
2018-Oct-04 20:02N 44°24' E 008°55'0 0.0
2018-Oct-04 19:59N 44°24' E 008°55'0 0.0
2018-Oct-04 19:29N 44°24' E 008°55'0 0.0
2018-Oct-04 19:02N 44°24' E 008°55'0 0.0
2018-Oct-04 18:59N 44°24' E 008°55'0 0.0
2018-Oct-04 18:29N 44°24' E 008°55'0 0.0
2018-Oct-04 18:02N 44°24' E 008°55'0 0.1
2018-Oct-04 17:58N 44°24' E 008°55'0 0.0
2018-Oct-04 17:29N 44°24' E 008°55'0 0.0
2018-Oct-04 17:02N 44°24' E 008°55'0 0.0
2018-Oct-04 16:59N 44°24' E 008°55'0 0.0
2018-Oct-04 16:29N 44°24' E 008°55'0 0.0
2018-Oct-04 16:02N 44°24' E 008°55'0 0.1
2018-Oct-04 15:59N 44°24' E 008°55'0 0.0
2018-Oct-04 15:29N 44°24' E 008°55'0 0.0
2018-Oct-04 15:02N 44°24' E 008°55'0 0.0
2018-Oct-04 14:59N 44°24' E 008°55'0 0.0
2018-Oct-04 14:28N 44°24' E 008°55'0 0.0
2018-Oct-04 14:02N 44°24' E 008°55'0 0.0
2018-Oct-04 13:59N 44°24' E 008°55'0 0.0
2018-Oct-04 13:29N 44°24' E 008°55'0 0.0
2018-Oct-04 13:02N 44°24' E 008°55'0 0.0
2018-Oct-04 12:59N 44°24' E 008°55'0 0.0
2018-Oct-04 12:29N 44°24' E 008°55'0 0.0
2018-Oct-04 12:01N 44°24' E 008°55'0 0.0
2018-Oct-04 11:59N 44°24' E 008°55'0 0.0
2018-Oct-04 11:29N 44°24' E 008°55'0 0.0
2018-Oct-04 11:02N 44°24' E 008°55'0 0.0
2018-Oct-04 10:59N 44°24' E 008°55'0 0.0
2018-Oct-04 10:28N 44°24' E 008°55'0 0.0
2018-Oct-04 10:01N 44°24' E 008°55'0 0.0
2018-Oct-04 09:59N 44°24' E 008°55'0 0.0
2018-Oct-04 09:29N 44°24' E 008°55'0 0.0
2018-Oct-04 09:02N 44°24' E 008°55'0 0.1
2018-Oct-04 08:58N 44°24' E 008°55'0 0.0
2018-Oct-04 08:29N 44°24' E 008°55'0 0.0
2018-Oct-04 08:01N 44°24' E 008°55'0 0.0
2018-Oct-04 07:59N 44°24' E 008°55'0 0.0
2018-Oct-04 07:28N 44°24' E 008°55'0 0.0
2018-Oct-04 07:01N 44°24' E 008°55'0 0.1
2018-Oct-04 06:58N 44°24' E 008°55'0 0.0
2018-Oct-04 06:28N 44°24' E 008°55'0 0.0
2018-Oct-04 06:01N 44°24' E 008°55'0 0.0
2018-Oct-04 05:59N 44°24' E 008°55'0 0.0
2018-Oct-04 05:28N 44°24' E 008°55'0 0.0
2018-Oct-04 05:02N 44°24' E 008°55'0 0.0
2018-Oct-04 04:58N 44°24' E 008°55'0 0.0
2018-Oct-04 04:29N 44°24' E 008°55'0 0.0
2018-Oct-04 04:01N 44°24' E 008°55'0 0.0
2018-Oct-04 03:59N 44°24' E 008°55'0 0.0
2018-Oct-04 03:28N 44°24' E 008°55'0 0.0
2018-Oct-04 03:01N 44°24' E 008°55'0 0.0
2018-Oct-04 02:58N 44°24' E 008°55'0 0.0
2018-Oct-04 02:28N 44°24' E 008°55'0 0.0
2018-Oct-04 02:01N 44°24' E 008°55'0 0.0
2018-Oct-04 01:59N 44°24' E 008°55'0 0.0
2018-Oct-04 01:28N 44°24' E 008°55'0 0.0
2018-Oct-04 01:01N 44°24' E 008°55'0 0.0
2018-Oct-04 00:58N 44°24' E 008°55'0 0.0
2018-Oct-04 00:29N 44°24' E 008°55'0 0.0
2018-Oct-04 00:01N 44°24' E 008°55'0 0.0
2018-Oct-03 23:58N 44°24' E 008°55'0 0.0
2018-Oct-03 23:28N 44°24' E 008°55'0 0.0
2018-Oct-03 23:01N 44°24' E 008°55'0 0.0
2018-Oct-03 22:58N 44°24' E 008°55'0 0.0
2018-Oct-03 22:28N 44°24' E 008°55'0 0.0
2018-Oct-03 21:58N 44°24' E 008°55'0 0.0
2018-Oct-03 21:25N 44°24' E 008°55'0 0.0
2018-Oct-03 21:02N 44°24' E 008°55'0 0.0
2018-Oct-03 20:58N 44°24' E 008°55'0 0.0
2018-Oct-03 20:28N 44°24' E 008°55'0 0.0
2018-Oct-03 19:58N 44°24' E 008°55'0 0.0
2018-Oct-03 19:28N 44°24' E 008°55'0 0.0
2018-Oct-03 19:01N 44°24' E 008°55'0 0.1
2018-Oct-03 18:58N 44°24' E 008°55'0 0.0
2018-Oct-03 18:28N 44°24' E 008°55'0 0.0
2018-Oct-03 18:01N 44°24' E 008°55'0 0.0
2018-Oct-03 17:58N 44°24' E 008°55'0 0.0
2018-Oct-03 17:28N 44°24' E 008°55'0 0.0
2018-Oct-03 17:01N 44°24' E 008°55'0 0.0
2018-Oct-03 16:58N 44°24' E 008°55'0 0.0
2018-Oct-03 16:28N 44°24' E 008°55'0 0.0
2018-Oct-03 16:01N 44°24' E 008°55'0 0.0
2018-Oct-03 15:58N 44°24' E 008°55'0 0.0
2018-Oct-03 15:28N 44°24' E 008°55'0 0.0
2018-Oct-03 15:01N 44°24' E 008°55'0 0.0
2018-Oct-03 14:58N 44°24' E 008°55'0 0.0
2018-Oct-03 14:28N 44°24' E 008°55'0 0.0
2018-Oct-03 13:55N 44°24' E 008°55'0 0.0
2018-Oct-03 13:28N 44°24' E 008°55'0 0.0
2018-Oct-03 13:01N 44°24' E 008°55'0 0.0
2018-Oct-03 12:58N 44°24' E 008°55'0 0.0
2018-Oct-03 12:28N 44°24' E 008°55'0 0.0
2018-Oct-03 12:01N 44°24' E 008°55'0 0.0
2018-Oct-03 11:58N 44°24' E 008°55'0 0.0
2018-Oct-03 11:28N 44°24' E 008°55'0 0.0
2018-Oct-03 11:01N 44°24' E 008°55'0 0.0
2018-Oct-03 10:55N 44°24' E 008°55'0 0.0
2018-Oct-03 10:28N 44°24' E 008°55'0 0.0
2018-Oct-03 10:01N 44°24' E 008°55'0 0.0
2018-Oct-03 09:58N 44°24' E 008°55'0 0.0
2018-Oct-03 09:28N 44°24' E 008°55'0 0.0
2018-Oct-03 09:01N 44°24' E 008°55'0 0.0
2018-Oct-03 08:58N 44°24' E 008°55'0 0.0
2018-Oct-03 08:28N 44°24' E 008°55'  

Dump ship's entire track history